createdAt,value
2022-09-25T00:15:03.352Z,9.40
2022-09-25T00:33:46.087Z,9.90
2022-09-25T01:04:54.606Z,10.10
2022-09-25T01:11:19.562Z,10.10
2022-09-25T01:23:55.475Z,10.20
2022-09-25T02:19:06.808Z,10.70
2022-09-25T02:25:30.204Z,10.70
2022-09-25T02:31:41.171Z,10.60
2022-09-25T02:56:44.234Z,10.90
2022-09-25T03:34:23.906Z,10.60
2022-09-25T03:40:15.993Z,10.60
2022-09-25T03:52:13.390Z,10.60
2022-09-25T03:58:20.152Z,10.60
2022-09-25T04:09:20.089Z,10.50
2022-09-25T04:15:25.269Z,10.40
2022-09-25T04:27:03.866Z,10.50
2022-09-25T04:32:41.539Z,10.50
2022-09-25T04:38:19.673Z,10.60
2022-09-25T04:44:09.050Z,10.50
2022-09-25T04:49:35.999Z,10.60
2022-09-25T04:54:51.678Z,10.60
2022-09-25T05:00:15.299Z,10.60
2022-09-25T05:06:18.312Z,10.60
2022-09-25T05:12:13.986Z,10.70
2022-09-25T05:18:36.666Z,10.70
2022-09-25T05:30:37.397Z,11.00
2022-09-25T05:37:01.916Z,11.10
2022-09-25T05:44:45.710Z,11.10
2022-09-25T05:49:44.089Z,11.20
2022-09-25T06:01:50.024Z,11.40
2022-09-25T06:20:47.985Z,12.10
2022-09-25T06:38:34.969Z,12.60
2022-09-25T06:43:23.270Z,12.90
2022-09-25T06:48:12.777Z,12.60
2022-09-25T06:53:32.788Z,12.50
2022-09-25T06:58:18.862Z,12.60
2022-09-25T07:03:24.740Z,12.60
2022-09-25T07:08:09.196Z,12.60
2022-09-25T07:13:18.137Z,12.90
2022-09-25T07:18:01.889Z,12.80
2022-09-25T07:22:50.807Z,12.90
2022-09-25T07:27:38.577Z,12.90
2022-09-25T07:32:26.119Z,12.80
2022-09-25T07:37:13.945Z,12.90
2022-09-25T07:42:08.017Z,13.00
2022-09-25T07:47:26.219Z,13.50
2022-09-25T07:52:15.808Z,14.00
2022-09-25T07:57:01.119Z,14.30
2022-09-25T08:02:18.636Z,14.50
2022-09-25T08:07:05.131Z,14.50
2022-09-25T08:11:55.531Z,14.70
2022-09-25T08:17:15.578Z,14.50
2022-09-25T08:23:22.678Z,14.80
2022-09-25T08:28:11.598Z,15.00
2022-09-25T13:10:37.508Z,20.00
2022-09-25T16:28:59.235Z,15.00
2022-09-25T16:35:50.536Z,14.80
2022-09-25T16:41:31.325Z,14.60
2022-09-25T16:54:03.166Z,14.50
2022-09-25T17:00:27.229Z,14.30
2022-09-25T17:19:51.266Z,13.70
2022-09-25T17:25:47.774Z,13.80
2022-09-25T18:24:14.078Z,11.90
2022-09-25T18:42:49.509Z,11.70
2022-09-25T19:13:57.882Z,11.40
2022-09-25T19:19:02.344Z,11.50
2022-09-25T19:24:59.762Z,11.60
2022-09-25T19:30:19.705Z,11.50
2022-09-25T19:35:06.439Z,11.30
2022-09-25T19:46:49.629Z,11.30
2022-09-25T19:51:58.852Z,11.20
2022-09-25T19:56:45.346Z,11.00
2022-09-25T20:02:00.150Z,11.10
2022-09-25T20:06:55.623Z,11.10
2022-09-25T20:11:39.355Z,10.90
2022-09-25T20:16:29.315Z,10.90
2022-09-25T20:21:17.706Z,10.80
2022-09-25T20:26:20.151Z,10.90
2022-09-25T20:31:07.991Z,11.10
2022-09-25T20:35:54.982Z,11.30
2022-09-25T20:40:43.401Z,11.50
2022-09-25T20:45:29.039Z,11.50
2022-09-25T20:50:22.561Z,11.60
2022-09-25T20:55:11.152Z,11.70
2022-09-25T21:00:13.364Z,11.80
2022-09-25T21:05:12.898Z,11.90
2022-09-25T21:10:06.781Z,12.00
2022-09-25T21:14:50.990Z,11.90
2022-09-25T21:19:40.346Z,11.80
2022-09-25T21:24:26.874Z,11.80
2022-09-25T21:29:15.953Z,11.80
2022-09-25T21:34:01.581Z,11.60
2022-09-25T21:38:52.691Z,11.70
2022-09-25T21:43:40.521Z,11.70
2022-09-25T21:48:25.024Z,11.70
2022-09-25T21:53:18.201Z,11.70
2022-09-25T21:58:03.891Z,11.70
2022-09-25T22:02:50.288Z,11.80
2022-09-25T22:07:38.071Z,11.90
2022-09-25T22:12:25.353Z,12.00
2022-09-25T22:17:14.369Z,12.10
2022-09-25T22:22:02.036Z,12.10
2022-09-25T22:26:50.636Z,12.00
2022-09-25T22:31:41.252Z,12.00
2022-09-25T22:36:27.427Z,11.90
2022-09-25T22:41:15.189Z,11.90
2022-09-25T22:46:00.960Z,11.90
2022-09-25T22:50:55.431Z,12.00
2022-09-25T22:55:40.397Z,12.00
2022-09-25T23:00:24.942Z,12.00
2022-09-25T23:05:18.201Z,12.00
2022-09-25T23:10:01.899Z,12.10
2022-09-25T23:14:52.443Z,12.00
2022-09-25T23:19:39.380Z,12.10
2022-09-25T23:24:26.727Z,12.10
2022-09-25T23:29:15.096Z,12.00
2022-09-25T23:34:03.972Z,12.00
2022-09-25T23:38:52.235Z,12.00
2022-09-25T23:43:38.999Z,12.10
2022-09-25T23:48:25.876Z,12.00
2022-09-25T23:53:14.449Z,12.00
2022-09-25T23:58:01.620Z,12.00
